Tiempo atmosférico en la estación meteorológica de Madrigal De La Vera, Cáceres (464 m.)



Fecha
DESCASC
Temp. máxima en grados centígrados (hora)
DESCASC
Temp. mínima en grados centígrados (hora)
DESCASC
Temp. media en grados centígrados
DESCASC
Racha de viento máxima en m/sg (hora)
DESCASC
Velocidad máxima media en intervalos de 10 minutos(hora)
DESCASC
Precipitaciones diarias en mm
DESCASC
Precipitaciones de 00:00 a 06:00 en mm
DESCASC
Precipitaciones de 06:00 a 12:00 en mm
DESCASC
Precipitaciones de 12:00 a 18:00 en mm
DESCASC
Precipitaciones de 18:00 a 24:00 en mm
DESCASC
14-12-2019 11.8 (14:20) 8.7 (00:00) 10.3 3.89 (02:30) 1.67 (02:40) 0 0 0 0 0
13-12-2019 16.4 (15:30) 8.2 (22:50) 12.3 12.78 (03:40) 5.83 (14:30) 0 0 0 0 0
12-12-2019 11.5 (23:50) 3.7 (08:40) 7.6 14.17 (21:00) 6.67 (17:30) 0 0 0 0 0
11-12-2019 13.1 (16:00) 3.2 (00:00) 8.2 14.17 (18:10) 6.67 (19:00) 0.2 0 0 0.2 0
10-12-2019 7.6 (01:40) 3.9 (00:00) 5.8 2.22 (02:20) 1.11 (18:50) 0 0 0 0 0
09-12-2019 10.4 (15:50) 6.5 (00:00) 8.4 3.06 (14:30) 1.67 (16:00) 0.2 0 0.2 0 0
08-12-2019 9.2 (14:30) 4.7 (00:00) 6.9 1.94 (09:50) 0.83 (17:00) 0 0 0 0 0
07-12-2019 14.7 (14:50) 5.1 (00:00) 9.9 3.33 (12:40) 1.67 (01:00) 0 0 0 0 0
06-12-2019 16.2 (15:30) 7.5 (00:00) 11.9 5.28 (12:30) 2.5 (12:20) 0 0 0 0 0
05-12-2019 15.3 (16:10) 6.1 (00:00) 10.7 4.44 (22:30) 1.39 (06:00) 0 0 0 0 0
04-12-2019 10.5 (14:50) 5.1 (00:00) 7.8 3.33 (14:50) 1.39 (12:00) 0 0 0 0 0
03-12-2019 13.8 (15:30) 3.4 (00:00) 8.6 4.44 (14:40) 2.22 (14:50) 0 0 0 0 0
02-12-2019 14.2 (14:30) 5.7 (00:00) 9.9 10.83 (12:40) 4.17 (15:20) 2 2 0 0 0
01-12-2019 11 (16:40) 5.9 (00:00) 8.5 2.78 (23:20) 1.67 (23:10) 36.8 1.8 29 4.6 1.4
30-11-2019 13.3 (00:00) 7.4 (00:00) 10.4 7.22 (19:40) 3.61 (19:40) 34 1 2.8 23 7.2
29-11-2019 14.2 (16:10) 12 (00:00) 13.1 5 (15:50) 2.22 (13:50) 5.4 1.6 1.8 0.2 1.8
28-11-2019 12.9 (14:00) 7.2 (00:00) 10 8.89 (17:10) 4.44 (17:10) 3 0 0.2 1.6 1.2
27-11-2019 14.4 (13:50) 8.6 (00:00) 11.5 8.89 (16:10) 3.89 (16:10) 0.4 0.4 0 0 0
26-11-2019 13.5 (19:20) 10.7 (00:00) 12.1 7.22 (23:59) 2.5 (23:59) 37.4 0.2 2.8 26.4 8
25-11-2019 16.2 (14:00) 8.9 (00:00) 12.6 3.61 (02:30) 1.67 (02:30) 6.2 4.6 1.6 0 0
24-11-2019 14 (15:40) 3.4 (00:00) 8.7 8.89 (01:40) 3.89 (01:30) 0.6 0 0 0 0.6
23-11-2019 13.9 (12:40) 7.6 (00:00) 10.7 17.5 (09:50) 4.72 (08:50) 0.8 0.6 0.2 0 0
22-11-2019 11.9 (17:20) 8.2 (00:00) 10 6.11 (17:30) 2.22 (18:00) 55.8 13.6 33.2 8.2 0.8
21-11-2019 11.2 (16:10) 5.9 (00:00) 8.5 4.17 (15:20) 1.11 (21:30) 10.6 2 4 0.2 4.4
20-11-2019 8.1 (15:40) 5.6 (00:00) 6.9 2.22 (10:20) 0.83 (16:30) 9.6 0 2 7 0.6
19-11-2019 10.7 (15:10) 3.8 (00:00) 7.2 2.78 (15:40) 1.39 (00:20) 0 0 0 0 0
18-11-2019 14.3 (15:30) 4.5 (00:00) 9.4 11.11 (02:50) 5.28 (02:40) 0 0 0 0 0
17-11-2019 9.7 (23:20) 3.5 (00:00) 6.6 6.39 (23:59) 2.5 (23:20) 0.6 0 0 0.2 0.4
16-11-2019 13 (15:40) 1.7 (00:00) 7.4 11.39 (04:50) 3.61 (05:00) 0 0 0 0 0

Gráficas

Temp. máximas Temp. mínimas Temp. medias Precipitaciones Rachas de viento máximas Velocidades máximas media en intervalos de 10 minutos

Datos horarios

Fecha y hora oficial Temperatura (ºC) Velocidad del viento (km/h) Dirección del viento Racha (km/h) Dirección de racha Precipitación (mm) Presión (hPa) Tendencia (hPa) Humedad (%)
2019-12-15 23:00:00 9.4 5 Noroeste 7 Noroeste 0.2 -- -- 94
2019-12-15 22:00:00 9.7 3 Norte 9 Nordeste 0 -- -- 95
2019-12-15 21:00:00 9.8 2 Noroeste 5 Noroeste 0.2 -- -- 97
2019-12-15 20:00:00 9.8 4 Noroeste 6 Oeste 0 -- -- 97
2019-12-15 19:00:00 9.9 0 Calma 4 Noroeste 0.2 -- -- 97
2019-12-15 18:00:00 10.1 0 Calma 5 Norte 0 -- -- 97
2019-12-15 17:00:00 10.4 2 Norte 6 Sur 0.4 -- -- 97
2019-12-15 16:00:00 10.7 3 Oeste 8 Noroeste 0.4 -- -- 96
2019-12-15 15:00:00 10.7 0 Calma 9 Sur 0.2 -- -- 97
2019-12-15 14:00:00 10.7 0 Calma 5 Sudoeste 3.2 -- -- 96
2019-12-15 13:00:00 10.5 2 Sudoeste 12 Sur 1.2 -- -- 96
2019-12-15 12:00:00 10.4 4 Sudoeste 13 Sudoeste 1.6 -- -- 97
2019-12-15 11:00:00 10.1 2 Sudoeste 5 Oeste 0.4 -- -- 96
2019-12-15 10:00:00 9.6 2 Noroeste 14 Noroeste 0.4 -- -- 96
2019-12-15 09:00:00 9.5 4 Oeste 14 Noroeste 0.2 -- -- 96
2019-12-15 08:00:00 9.4 4 Sudoeste 16 Sudoeste 1.4 -- -- 96
2019-12-15 07:00:00 9.2 0 Calma 3 Sur 0 -- -- 95
2019-12-15 06:00:00 9.4 0 Calma 8 Norte 0 -- -- 92
2019-12-15 05:00:00 9.5 0 Calma 4 Norte 0 -- -- 93
2019-12-15 04:00:00 9.7 0 Calma 4 Este 0 -- -- 92
2019-12-15 03:00:00 9.9 0 Calma 8 Sudoeste 0 -- -- 90
2019-12-15 02:00:00 9.9 2 Oeste 6 Sudoeste 0 -- -- 92
2019-12-15 01:00:00 9.6 2 Noroeste 10 Noroeste 0 -- -- 91
2019-12-15 00:00:00 9.3 2 Noroeste 4 Noroeste 0 -- -- 90
2019-12-14 23:00:00 10 0 Calma 5 Sudoeste 0 -- -- 90
2019-12-14 22:00:00 10.2 0 Calma 8 Sudoeste 0 -- -- 90
2019-12-14 21:00:00 10.3 2 Oeste 7 Nordeste 0 -- -- 87
2019-12-14 20:00:00 9.9 3 Noroeste 5 Oeste 0 -- -- 85
2019-12-14 19:00:00 9.9 0 Calma 3 Noroeste 0 -- -- 88
2019-12-14 18:00:00 10.5 0 Calma 3 Noroeste 0 -- -- 85
2019-12-14 17:00:00 11.2 0 Calma 4 Nordeste 0 -- -- 85
2019-12-14 16:00:00 11.4 0 Calma 7 Sur 0 -- -- 82
2019-12-14 15:00:00 11.8 0 Calma 4 Nordeste 0 -- -- 80
2019-12-14 14:00:00 11.4 0 Calma 7 Sur 0 -- -- 82
2019-12-14 13:00:00 11.1 2 Sur 6 Sur 0 -- -- 87
2019-12-14 12:00:00 11 2 Este 7 Este 0 -- -- 91
2019-12-14 11:00:00 9.9 3 Sur 6 Sur 0 -- -- 95
2019-12-14 10:00:00 9.3 0 Calma 4 Sudoeste 0 -- -- 97
2019-12-14 09:00:00 9 0 Calma 4 Sudeste 0 -- -- 96
2019-12-14 08:00:00 9.2 0 Calma 5 Sudoeste 0 -- -- 96
2019-12-14 07:00:00 9.3 0 Calma 4 Norte 0 -- -- 96
2019-12-14 06:00:00 9.5 0 Calma 6 Nordeste 0 -- -- 95
2019-12-14 05:00:00 9.6 3 Nordeste 8 Nordeste 0 -- -- 95
2019-12-14 04:00:00 9.7 4 Nordeste 9 Nordeste 0 -- -- 95
2019-12-14 03:00:00 9.8 5 Nordeste 14 Este 0 -- -- 95
2019-12-14 02:00:00 9.7 3 Norte 12 Nordeste 0 -- -- 96
2019-12-14 01:00:00 9.1 4 Nordeste 10 Nordeste 0 -- -- 97
2019-12-14 00:00:00 8.7 3 Nordeste 8 Nordeste 0 -- -- 97
2019-12-13 23:00:00 8.4 0 Calma 6 Norte 0 -- -- 97
2019-12-13 22:00:00 8.9 0 Calma 5 Este 0 -- -- 94
2019-12-13 21:00:00 10.8 3 Oeste 17 Sudoeste 0 -- -- 89
2019-12-13 20:00:00 10.8 3 Sudoeste 17 Sudoeste 0 -- -- 89
2019-12-13 19:00:00 12.3 5 Oeste 23 Sudoeste 0 -- -- 83
2019-12-13 18:00:00 13.6 11 Sudoeste 19 Sudoeste 0 -- -- 74
2019-12-13 17:00:00 15.3 4 Oeste 18 Oeste 0 -- -- 70
2019-12-13 16:00:00 15.8 8 Sudoeste 30 Sudoeste 0 -- -- 70
2019-12-13 15:00:00 16 13 Sudoeste 36 Sudoeste 0 -- -- 70
2019-12-13 14:00:00 15.8 12 Sudoeste 28 Sur 0 -- -- 70
2019-12-13 13:00:00 14.8 9 Sudoeste 26 Sudoeste 0 -- -- 70
2019-12-13 12:00:00 13.8 12 Sudoeste 30 Sudoeste 0 -- -- 73
2019-12-13 11:00:00 13.1 9 Sudoeste 24 Sudoeste 0 -- -- 74
2019-12-13 10:00:00 12 8 Sudoeste 33 Sur 0 -- -- 75
2019-12-13 09:00:00 11.2 5 Noroeste 30 Sudoeste 0 -- -- 81
2019-12-13 08:00:00 11.6 8 Sudoeste 32 Sudoeste 0 -- -- 80
2019-12-13 07:00:00 11.5 12 Sudoeste 34 Sudoeste 0 -- -- 85
2019-12-13 06:00:00 11.5 12 Oeste 33 Sudoeste 0 -- -- 89
2019-12-13 05:00:00 11.7 11 Oeste 45 Sudoeste 0 -- -- 91
2019-12-13 04:00:00 12.1 15 Sudoeste 46 Sudoeste 0 -- -- 90
2019-12-13 03:00:00 12 9 Oeste 42 Sudoeste 0 -- -- 92
2019-12-13 02:00:00 11.9 10 Sudoeste 44 Sudoeste 0 -- -- 92
2019-12-13 01:00:00 11.8 10 Oeste 28 Sur 0 -- -- 92
2019-12-13 00:00:00 11.5 7 Sudoeste 35 Sur 0 -- -- 93
2019-12-12 23:00:00 11 13 Sudoeste 36 Sudoeste 0 -- -- 95
2019-12-12 22:00:00 10.6 14 Sudoeste 50 Sur 0 -- -- 96
2019-12-12 21:00:00 10.3 19 Sudoeste 51 Sudoeste 0 -- -- 95
2019-12-12 20:00:00 9.9 15 Sudoeste 44 Sudoeste 0 -- -- 96
2019-12-12 19:00:00 9.3 21 Sur 51 Sur 0 -- -- 97
2019-12-12 18:00:00 9.3 22 Sudoeste 50 Sur 0 -- -- 95
2019-12-12 17:00:00 9.1 20 Sudoeste 42 Sur 0 -- -- 95
2019-12-12 16:00:00 9.1 10 Sudoeste 30 Oeste 0 -- -- 93
2019-12-12 15:00:00 9.6 6 Oeste 19 Sudoeste 0 -- -- 87
2019-12-12 14:00:00 -- -- -- -- -- -- -- -- --
2019-12-12 13:00:00 7.9 6 Sur 21 Sudoeste 0 -- -- 90
2019-12-12 12:00:00 7.6 11 Sudoeste 19 Sur 0 -- -- 87
2019-12-12 11:00:00 6.1 2 Este 5 Este 0 -- -- 85
2019-12-12 10:00:00 4.7 0 Calma 7 Noroeste 0 -- -- 88
2019-12-12 09:00:00 3.9 0 Calma 5 Este 0 -- -- 89
2019-12-12 08:00:00 4.2 3 Sudoeste 8 Oeste 0 -- -- 86
2019-12-12 07:00:00 3.9 0 Calma 6 Noroeste 0 -- -- 87
2019-12-12 06:00:00 3.9 0 Calma 13 Sudoeste 0 -- -- 85
2019-12-12 05:00:00 4.7 0 Calma 7 Norte 0 -- -- 81
2019-12-12 04:00:00 4.3 2 Nordeste 7 Nordeste 0 -- -- 83
2019-12-12 03:00:00 4.7 0 Calma 10 Sudoeste 0 -- -- 80
2019-12-12 02:00:00 5 5 Noroeste 12 Noroeste 0 -- -- 77
2019-12-12 01:00:00 5.1 2 Sur 8 Noroeste 0 -- -- 78
2019-12-12 00:00:00 6.7 4 Sudoeste 24 Norte 0 -- -- 69
2019-12-11 23:00:00 9.8 4 Sudoeste 28 Norte 0 -- -- 52
2019-12-11 22:00:00 10.6 10 Norte 28 Norte 0 -- -- 49
2019-12-11 21:00:00 10.4 13 Norte 43 Noroeste 0 -- -- 47
2019-12-11 20:00:00 10 22 Norte 45 Noroeste 0 -- -- 49
2019-12-11 19:00:00 10.1 24 Norte 51 Norte 0 -- -- 50
2019-12-11 18:00:00 11.4 13 Norte 34 Norte 0 -- -- 42
2019-12-11 17:00:00 11.7 4 Noroeste 29 Noroeste 0 -- -- 48
2019-12-11 16:00:00 13.1 4 Nordeste 31 Nordeste 0.2 -- -- 41
2019-12-11 15:00:00 12.1 9 Sudoeste 18 Sur 0 -- -- 53
2019-12-11 14:00:00 11.5 5 Sudeste 24 Sur 0 -- -- 73
2019-12-11 13:00:00 9.1 3 Sudeste 18 Este 0 -- -- 93
2019-12-11 12:00:00 7.5 5 Norte 17 Sur 0 -- -- 99
2019-12-11 11:00:00 5.5 0 Calma 5 Sur 0 -- -- 99
2019-12-11 10:00:00 4.9 0 Calma 2 Este 0 -- -- 99
2019-12-11 09:00:00 4.4 0 Calma 3 Noroeste 0 -- -- 99
2019-12-11 08:00:00 4.3 0 Calma 3 Norte 0 -- -- 99
2019-12-11 07:00:00 4.1 0 Calma 4 Norte 0 -- -- 99
2019-12-11 06:00:00 3.9 0 Calma 8 Norte 0 -- -- 99
2019-12-11 05:00:00 3.5 2 Norte 6 Norte 0 -- -- 99
2019-12-11 04:00:00 3.7 0 Calma 3 Sudoeste 0 -- -- 99
2019-12-11 03:00:00 3.4 0 Calma 4 Noroeste 0 -- -- 99
2019-12-11 02:00:00 3.2 3 Norte 5 Norte 0 -- -- 99
2019-12-11 01:00:00 3.8 2 Sudoeste 4 Sudoeste 0 -- -- 98
2019-12-11 00:00:00 4.2 0 Calma 2 Noroeste 0 -- -- 98
2019-12-10 23:00:00 4 0 Calma 4 Noroeste 0 -- -- 97
2019-12-10 22:00:00 4.5 0 Calma 6 Noroeste 0 -- -- 98
2019-12-10 21:00:00 4.6 0 Calma 5 Sudoeste 0 -- -- 98
2019-12-10 20:00:00 4.6 0 Calma 5 Noroeste 0 -- -- 97
2019-12-10 19:00:00 5.1 4 Noroeste 6 Oeste 0 -- -- 97
2019-12-10 18:00:00 5.5 3 Noroeste 5 Noroeste 0 -- -- 97
2019-12-10 17:00:00 5.9 0 Calma 4 Nordeste 0 -- -- 96
2019-12-10 16:00:00 6.1 0 Calma 5 Este 0 -- -- 96
2019-12-10 15:00:00 5.9 2 Este 4 Este 0 -- -- 97
2019-12-10 14:00:00 5.7 0 Calma 6 Este 0 -- -- 98
2019-12-10 13:00:00 5.4 0 Calma 4 Este 0 -- -- 99
2019-12-10 12:00:00 4.8 0 Calma 4 Norte 0 -- -- 99
2019-12-10 11:00:00 4.7 3 Nordeste 5 Este 0 -- -- 99
2019-12-10 10:00:00 4.3 0 Calma 6 Norte 0 -- -- 99
2019-12-10 09:00:00 4.3 2 Norte 4 Norte 0 -- -- 98
2019-12-10 08:00:00 4.8 3 Nordeste 5 Este 0 -- -- 98
2019-12-10 07:00:00 4.1 0 Calma 6 Nordeste 0 -- -- 97
2019-12-10 06:00:00 5.4 0 Calma 6 Este 0 -- -- 98
2019-12-10 05:00:00 4.7 0 Calma 6 Este 0 -- -- 97
2019-12-10 04:00:00 5.3 0 Calma 5 Noroeste 0 -- -- 96
2019-12-10 03:00:00 6.1 3 Noroeste 8 Norte 0 -- -- 94
2019-12-10 02:00:00 7.5 0 Calma 6 Norte 0 -- -- 94
2019-12-10 01:00:00 7.5 2 Noroeste 5 Noroeste 0 -- -- 96
2019-12-10 00:00:00 7 0 Calma 5 Noroeste 0 -- -- 97
2019-12-09 23:00:00 6.6 2 Noroeste 5 Norte 0 -- -- 95
2019-12-09 22:00:00 7.4 0 Calma 5 Norte 0 -- -- 95
2019-12-09 21:00:00 8 0 Calma 5 Este 0 -- -- 93
2019-12-09 20:00:00 8.6 0 Calma 3 Sur 0 -- -- 93
2019-12-09 19:00:00 8.9 0 Calma 10 Sudoeste 0 -- -- 92
2019-12-09 18:00:00 9.3 3 Sudoeste 9 Sudoeste 0 -- -- 90
2019-12-09 17:00:00 9.9 5 Sur 11 Sur 0 -- -- 89
2019-12-09 16:00:00 10.3 6 Sur 11 Sur 0 -- -- 88
2019-12-09 15:00:00 10.1 3 Sur 11 Sur 0 -- -- 91
2019-12-09 14:00:00 9.9 3 Sudoeste 9 Sur 0 -- -- 91
2019-12-09 13:00:00 9.9 0 Calma 6 Sudoeste 0 -- -- 93
2019-12-09 12:00:00 9.5 0 Calma 6 Sudoeste 0 -- -- 94
2019-12-09 11:00:00 8.8 0 Calma 6 Noroeste 0 -- -- 96
2019-12-09 10:00:00 8.1 3 Norte 8 Norte 0 -- -- 98
2019-12-09 09:00:00 7.6 3 Norte 6 Norte 0 -- -- 98
2019-12-09 08:00:00 7.4 0 Calma 8 Norte 0.2 -- -- 98
2019-12-09 07:00:00 7.2 4 Noroeste 8 Oeste 0 -- -- 99
2019-12-09 06:00:00 6.7 3 Noroeste 8 Noroeste 0 -- -- 99
2019-12-09 05:00:00 6.9 2 Norte 9 Nordeste 0 -- -- 99
2019-12-09 04:00:00 7.1 0 Calma 5 Nordeste 0 -- -- 98
2019-12-09 03:00:00 7.1 2 Noroeste 5 Nordeste 0 -- -- 98
2019-12-09 02:00:00 7.5 3 Norte 8 Este 0 -- -- 98
2019-12-09 01:00:00 7.8 4 Nordeste 10 Nordeste 0 -- -- 98
2019-12-09 00:00:00 7.5 2 Norte 6 Norte 0 -- -- 98
2019-12-08 23:00:00 6.5 0 Calma 4 Norte 0 -- -- 98
2019-12-08 22:00:00 6.7 3 Norte 5 Norte 0 -- -- 97
2019-12-08 21:00:00 7.1 0 Calma 4 Noroeste 0 -- -- 97
2019-12-08 20:00:00 7.8 0 Calma 3 Norte 0 -- -- 96
2019-12-08 19:00:00 7.7 0 Calma 3 Sudoeste 0 -- -- 95
2019-12-08 18:00:00 8.1 0 Calma 6 Sur 0 -- -- 94
2019-12-08 17:00:00 8.2 3 Sudoeste 6 Sudoeste 0 -- -- 93
2019-12-08 16:00:00 8.6 2 Sudoeste 6 Sur 0 -- -- 91
2019-12-08 15:00:00 9.2 0 Calma 5 Sudeste 0 -- -- 89
2019-12-08 14:00:00 8.9 2 Este 6 Nordeste 0 -- -- 92
2019-12-08 13:00:00 8.2 0 Calma 6 Sudeste 0 -- -- 93
2019-12-08 12:00:00 7.2 0 Calma 5 Sudeste 0 -- -- 95
2019-12-08 11:00:00 7 2 Este 5 Sur 0 -- -- 96
2019-12-08 10:00:00 7.1 0 Calma 7 Este 0 -- -- 98
2019-12-08 09:00:00 5 0 Calma 3 Norte 0 -- -- 98
2019-12-08 08:00:00 5.3 2 Noroeste 5 Noroeste 0 -- -- 97
2019-12-08 07:00:00 5 0 Calma 3 Sudoeste 0 -- -- 97
2019-12-08 06:00:00 5.5 2 Sur 4 Sur 0 -- -- 97
2019-12-08 05:00:00 6.1 0 Calma 3 Sudoeste 0 -- -- 96
2019-12-08 04:00:00 6.5 0 Calma 3 Noroeste 0 -- -- 96
2019-12-08 03:00:00 6.5 0 Calma 6 Noroeste 0 -- -- 96
2019-12-08 02:00:00 6.8 0 Calma -- -- 0 -- -- 96
2019-12-08 01:00:00 6.9 0 Calma 4 Nordeste 0 -- -- 94
2019-12-08 00:00:00 7 2 Norte 4 Norte 0 -- -- 93
2019-12-07 23:00:00 8.2 0 Calma 4 Oeste 0 -- -- 90
2019-12-07 22:00:00 9.1 3 Noroeste 6 Noroeste 0 -- -- 87
2019-12-07 21:00:00 9 0 Calma 5 Noroeste 0 -- -- 88
2019-12-07 20:00:00 9.1 3 Noroeste 5 Noroeste 0 -- -- 86
2019-12-07 19:00:00 9.3 0 Calma 5 Sudoeste 0 -- -- 87
2019-12-07 18:00:00 10.1 2 Oeste 5 Sudoeste 0 -- -- 83
2019-12-07 17:00:00 13.2 2 Sur 10 Sur 0 -- -- 72
2019-12-07 16:00:00 14.6 4 Sur 12 Sur 0 -- -- 64
2019-12-07 15:00:00 14.7 4 Sur 12 Sudoeste 0 -- -- 63
2019-12-07 14:00:00 14 3 Sudeste 8 Este 0 -- -- 67
2019-12-07 13:00:00 12.6 3 Sur 12 Sudoeste 0 -- -- 70
2019-12-07 12:00:00 11.5 4 Sudeste 12 Sur 0 -- -- 74
2019-12-07 11:00:00 9.3 3 Sudeste 8 Sur 0 -- -- 81
2019-12-07 10:00:00 7.9 3 Norte 6 Norte 0 -- -- 86
2019-12-07 09:00:00 5.7 2 Noroeste 5 Sudoeste 0 -- -- 94
2019-12-07 08:00:00 5.4 3 Sudoeste 6 Sudoeste 0 -- -- 93
2019-12-07 07:00:00 5.7 0 Calma 5 Oeste 0 -- -- 94
2019-12-07 06:00:00 5.8 0 Calma 5 Noroeste 0 -- -- 91
2019-12-07 05:00:00 6.7 2 Sudoeste 7 Sudoeste 0 -- -- 88
2019-12-07 04:00:00 9 4 Noroeste 9 Oeste 0 -- -- 78
2019-12-07 03:00:00 8.8 3 Noroeste 8 Noroeste 0 -- -- 79
2019-12-07 02:00:00 8.6 5 Noroeste 10 Noroeste 0 -- -- 80
2019-12-07 01:00:00 8.8 6 Noroeste 8 Noroeste 0 -- -- 80
2019-12-07 00:00:00 8.5 5 Noroeste 8 Noroeste 0 -- -- 81
2019-12-06 23:00:00 9.5 3 Noroeste 7 Oeste 0 -- -- 78
2019-12-06 22:00:00 9.8 4 Noroeste 7 Norte 0 -- -- 78
2019-12-06 21:00:00 10.2 3 Noroeste 8 Noroeste 0 -- -- 77
2019-12-06 20:00:00 10.2 0 Calma 4 Norte 0 -- -- 77
2019-12-06 19:00:00 11.5 2 Noroeste 4 Noroeste 0 -- -- 73
2019-12-06 18:00:00 11.3 0 Calma 4 Sur 0 -- -- 75
2019-12-06 17:00:00 14.6 0 Calma 9 Sudeste 0 -- -- 65
2019-12-06 16:00:00 16 2 Sudoeste 13 Sur 0 -- -- 55
2019-12-06 15:00:00 15.9 4 Sudeste 11 Este 0 -- -- 57
2019-12-06 14:00:00 16 6 Este 16 Este 0 -- -- 57
2019-12-06 13:00:00 15.3 4 Este 19 Este 0 -- -- 58
2019-12-06 12:00:00 13.2 7 Este 16 Este 0 -- -- 66
2019-12-06 11:00:00 12 2 Este 9 Este 0 -- -- 66
2019-12-06 10:00:00 10.5 2 Sudoeste 8 Oeste 0 -- -- 74
2019-12-06 09:00:00 7.7 0 Calma 9 Noroeste 0 -- -- 83
2019-12-06 08:00:00 8.4 3 Oeste 11 Noroeste 0 -- -- 79
2019-12-06 07:00:00 9.1 3 Noroeste 10 Noroeste 0 -- -- 76
2019-12-06 06:00:00 8.9 3 Norte 11 Este 0 -- -- 77
2019-12-06 05:00:00 8.4 3 Sudoeste 4 Sudoeste 0 -- -- 81
2019-12-06 04:00:00 9.8 0 Calma 8 Este 0 -- -- 77
2019-12-06 03:00:00 10.7 2 Norte 6 Este 0 -- -- 70
2019-12-06 02:00:00 11 0 Calma 9 Nordeste 0 -- -- 71
2019-12-06 01:00:00 10.6 3 Noroeste 11 Norte 0 -- -- 72
2019-12-06 00:00:00 10.4 0 Calma 8 Nordeste 0 -- -- 72
2019-12-05 23:00:00 10.6 3 Sudeste 16 Este 0 -- -- 72
2019-12-05 22:00:00 10.4 2 Noroeste 8 Sur 0 -- -- 69
2019-12-05 21:00:00 10.4 0 Calma 10 Noroeste 0 -- -- 69
2019-12-05 20:00:00 11.1 3 Norte 13 Noroeste 0 -- -- 70
2019-12-05 19:00:00 10.6 4 Norte 13 Norte 0 -- -- 72
2019-12-05 18:00:00 11.5 3 Sur 15 Este 0 -- -- 71
2019-12-05 17:00:00 14.5 5 Este 13 Este 0 -- -- 58
2019-12-05 16:00:00 15.2 0 Calma 10 Este 0 -- -- 61
2019-12-05 15:00:00 14.8 5 Este 15 Este 0 -- -- 60
2019-12-05 14:00:00 14.5 4 Este 12 Este 0 -- -- 62
2019-12-05 13:00:00 11.1 2 Norte 6 Este 0 -- -- 81
2019-12-05 12:00:00 11.4 3 Sur 6 Este 0 -- -- 80
2019-12-05 11:00:00 9.8 0 Calma 9 Sudeste 0 -- -- 85
2019-12-05 10:00:00 8.8 0 Calma 6 Sudoeste 0 -- -- 87
2019-12-05 09:00:00 7.6 2 Oeste 8 Sudoeste 0 -- -- 90
2019-12-05 08:00:00 7.4 3 Oeste 8 Oeste 0 -- -- 89
2019-12-05 07:00:00 7 3 Norte 8 Norte 0 -- -- 89
2019-12-05 06:00:00 6.4 5 Oeste 8 Noroeste 0 -- -- 95
2019-12-05 05:00:00 6.3 0 Calma 6 Este 0 -- -- 93
2019-12-05 04:00:00 7 3 Noroeste 5 Noroeste 0 -- -- 93
2019-12-05 03:00:00 7.2 0 Calma 4 Oeste 0 -- -- 92
2019-12-05 02:00:00 7.3 2 Sudoeste 6 Oeste 0 -- -- 91
2019-12-05 01:00:00 7.1 2 Norte 4 Oeste 0 -- -- 90
2019-12-05 00:00:00 7.2 0 Calma 4 Sudoeste 0 -- -- 89
2019-12-04 23:00:00 6.9 2 Noroeste 5 Noroeste 0 -- -- 91
2019-12-04 22:00:00 7.4 3 Noroeste 9 Sudoeste 0 -- -- 90
2019-12-04 21:00:00 7.8 4 Noroeste 7 Noroeste 0 -- -- 89
2019-12-04 20:00:00 8.5 3 Oeste 9 Noroeste 0 -- -- 86
2019-12-04 19:00:00 8.2 3 Noroeste 4 Noroeste 0 -- -- 88
2019-12-04 18:00:00 8.8 0 Calma 5 Sudoeste 0 -- -- 85
2019-12-04 17:00:00 9.3 3 Sudoeste 9 Sudoeste 0 -- -- 81
2019-12-04 16:00:00 10.2 4 Sudoeste 9 Sudoeste 0 -- -- 75
2019-12-04 15:00:00 10.3 5 Sur 12 Sur 0 -- -- 75
2019-12-04 14:00:00 10.2 4 Sur 9 Sur 0 -- -- 73
2019-12-04 13:00:00 9.8 3 Sur 9 Sudoeste 0 -- -- 79
2019-12-04 12:00:00 8.7 5 Sudoeste 10 Sudoeste 0 -- -- 78
2019-12-04 11:00:00 8.2 0 Calma 4 Sur 0 -- -- 82
2019-12-04 10:00:00 6.8 0 Calma 5 Noroeste 0 -- -- 86
2019-12-04 09:00:00 5.1 3 Sudoeste 7 Sudoeste 0 -- -- 92
2019-12-04 08:00:00 5.5 2 Oeste 6 Noroeste 0 -- -- 89
2019-12-04 07:00:00 6.4 0 Calma 8 Sudoeste 0 -- -- 87
2019-12-04 06:00:00 7.1 3 Oeste 6 Oeste 0 -- -- 87
2019-12-04 05:00:00 7.3 2 Oeste 6 Sudoeste 0 -- -- 83
2019-12-04 04:00:00 7.6 0 Calma 4 Sudoeste 0 -- -- 85
2019-12-04 03:00:00 8 2 Oeste 4 Noroeste 0 -- -- 84
2019-12-04 02:00:00 8.4 2 Sur 7 Sur 0 -- -- 80
2019-12-04 01:00:00 8.6 2 Noroeste 4 Noroeste 0 -- -- 79
2019-12-04 00:00:00 8.9 0 Calma 8 Este 0 -- -- 78
2019-12-03 23:00:00 8.5 0 Calma 5 Noroeste 0 -- -- 84
2019-12-03 22:00:00 8.5 0 Calma 5 Norte 0 -- -- 81
2019-12-03 21:00:00 9.1 0 Calma 9 Noroeste 0 -- -- 78
2019-12-03 20:00:00 9.2 3 Norte 8 Norte 0 -- -- 74
2019-12-03 19:00:00 9 0 Calma 8 Este 0 -- -- 75
2019-12-03 18:00:00 9.7 2 Sudeste 12 Sudeste 0 -- -- 74
2019-12-03 17:00:00 12.8 5 Sudeste 14 Este 0 -- -- 60
2019-12-03 16:00:00 13.8 3 Este 14 Sudeste 0 -- -- 55
2019-12-03 15:00:00 13 4 Este 16 Este 0 -- -- 57
2019-12-03 14:00:00 12.4 4 Nordeste 12 Este 0 -- -- 62
2019-12-03 13:00:00 12.1 3 Sudeste 12 Sur 0 -- -- 61
2019-12-03 12:00:00 10.3 3 Sur 11 Sur 0 -- -- 66
2019-12-03 11:00:00 7.8 4 Este 9 Nordeste 0 -- -- 74
2019-12-03 10:00:00 6.5 0 Calma 9 Sudoeste 0 -- -- 79
2019-12-03 09:00:00 4.3 0 Calma 7 Noroeste 0 -- -- 91
2019-12-03 08:00:00 3.6 0 Calma 6 Noroeste 0 -- -- 89
2019-12-03 07:00:00 4.2 3 Oeste 7 Sudoeste 0 -- -- 88
2019-12-03 06:00:00 4.4 2 Sudoeste 5 Sudoeste 0 -- -- 89
2019-12-03 05:00:00 5.1 2 Oeste 7 Noroeste 0 -- -- 84
2019-12-03 04:00:00 5.3 0 Calma 5 Noroeste 0 -- -- 83
2019-12-03 03:00:00 6 4 Noroeste 7 Noroeste 0 -- -- 80
2019-12-03 02:00:00 6.2 0 Calma 8 Noroeste 0 -- -- 79
2019-12-03 01:00:00 6.4 2 Noroeste 8 Norte 0 -- -- 80
2019-12-03 00:00:00 7.5 3 Oeste 9 Noroeste 0 -- -- 76
2019-12-02 23:00:00 6.9 6 Sudoeste 10 Sudoeste 0 -- -- 82
2019-12-02 22:00:00 6.9 4 Sudoeste 8 Sudoeste 0 -- -- 83
2019-12-02 21:00:00 7.5 3 Sudoeste 10 Sur 0 -- -- 79
2019-12-02 20:00:00 9.1 3 Este 14 Este 0 -- -- 69
2019-12-02 19:00:00 10 3 Oeste 12 Este 0 -- -- 67
2019-12-02 18:00:00 10.4 3 Noroeste 15 Este 0 -- -- 66
2019-12-02 17:00:00 12 6 Este 28 Este 0 -- -- 56
2019-12-02 16:00:00 13.6 10 Este 36 Este 0 -- -- 50
2019-12-02 15:00:00 14 10 Este 31 Este 0 -- -- 50
2019-12-02 14:00:00 13.8 11 Este 33 Este 0 -- -- 58
2019-12-02 13:00:00 12.2 12 Este 39 Este 0 -- -- 61
2019-12-02 12:00:00 11.9 7 Este 20 Este 0 -- -- 74
2019-12-02 11:00:00 9.2 5 Este 11 Este 0 -- -- 83
2019-12-02 10:00:00 7.8 4 Sur 10 Sudeste 0 -- -- 83
2019-12-02 09:00:00 5.9 0 Calma 8 Norte 0 -- -- 95
2019-12-02 08:00:00 6.2 0 Calma 8 Este 0 -- -- 93
2019-12-02 07:00:00 7 3 Este 14 Nordeste 0 -- -- 91
2019-12-02 06:00:00 7.8 6 Este 18 Este 0 -- -- 87
2019-12-02 05:00:00 7.2 4 Sudeste 13 Este 0.2 -- -- 97
2019-12-02 04:00:00 7.2 3 Noroeste 9 Oeste 0.4 -- -- 98
2019-12-02 03:00:00 7 0 Calma 4 Sudoeste 0.2 -- -- 99
2019-12-02 02:00:00 7 3 Oeste 8 Oeste 0.4 -- -- 98
2019-12-02 01:00:00 7 0 Calma 5 Sudoeste 0.8 -- -- 98
2019-12-02 00:00:00 7.2 2 Oeste 10 Sudoeste 1.4 -- -- 98
2019-12-01 23:00:00 7.1 4 Sudoeste 6 Sudoeste 0 -- -- 99
2019-12-01 22:00:00 6.5 0 Calma 6 Noroeste 0 -- -- 97
2019-12-01 21:00:00 7.1 2 Oeste 6 Noroeste 0 -- -- 97
2019-12-01 20:00:00 6.9 3 Noroeste 9 Oeste 0 -- -- 97
2019-12-01 19:00:00 6.7 3 Oeste 5 Oeste 0 -- -- 96
2019-12-01 18:00:00 7.7 0 Calma 6 Sudoeste 0 -- -- 94
2019-12-01 17:00:00 10.3 4 Sudoeste 9 Sur 0 -- -- 86
2019-12-01 16:00:00 10.2 2 Sudoeste 9 Este 0 -- -- 90
2019-12-01 15:00:00 9.4 0 Calma 3 Este 0.4 -- -- 98
2019-12-01 14:00:00 8.8 0 Calma 3 Nordeste 1 -- -- 98
2019-12-01 13:00:00 8.8 0 Calma 6 Norte 3.2 -- -- 99
2019-12-01 12:00:00 8.3 0 Calma 8 Norte 3.6 -- -- 99
2019-12-01 11:00:00 7.9 2 Nordeste 6 Norte 6.2 -- -- 99
2019-12-01 10:00:00 7.6 3 Norte 7 Norte 5 -- -- 99
2019-12-01 09:00:00 7.4 3 Norte 7 Nordeste 6.6 -- -- 99
2019-12-01 08:00:00 7.4 2 Nordeste 6 Nordeste 3.6 -- -- 99
2019-12-01 07:00:00 7.4 2 Norte 4 Norte 4 -- -- 99
2019-12-01 06:00:00 7.2 2 Norte 4 Norte 1.6 -- -- 99
2019-12-01 05:00:00 6.9 0 Calma 7 Norte 0 -- -- 99
2019-12-01 04:00:00 6.4 0 Calma 6 Noroeste 0 -- -- 99
2019-12-01 03:00:00 6.3 0 Calma 6 Sudoeste 0 -- -- 98
2019-12-01 02:00:00 6.4 2 Sudoeste 7 Norte 0 -- -- 98
2019-12-01 01:00:00 7.1 3 Norte 8 Noroeste 0.2 -- -- 98
2019-12-01 00:00:00 7.4 3 Nordeste 6 Nordeste 0 -- -- 97
2019-11-30 23:00:00 8.3 3 Nordeste 6 Norte 0 -- -- 98
2019-11-30 22:00:00 9.7 0 Calma 17 Sudoeste 0 -- -- 97
2019-11-30 21:00:00 10.9 7 Sudoeste 20 Sudoeste 0.4 -- -- 97
2019-11-30 20:00:00 11.4 5 Oeste 26 Sur 2 -- -- 98
2019-11-30 19:00:00 12.7 6 Sur 18 Sur 4.8 -- -- 99
2019-11-30 18:00:00 12.7 3 Sur 11 Sudoeste 2 -- -- 98
2019-11-30 17:00:00 12.4 2 Oeste 5 Norte 8.6 -- -- 98
2019-11-30 16:00:00 12.5 0 Calma 6 Sudoeste 4 -- -- 97
2019-11-30 15:00:00 12.6 0 Calma 4 Noroeste 3.2 -- -- 97
2019-11-30 14:00:00 12.5 3 Oeste 8 Noroeste 2.8 -- -- 96
2019-11-30 13:00:00 12.3 2 Oeste 9 Sudoeste 2.4 -- -- 97
2019-11-30 12:00:00 12.4 3 Sudoeste 12 Sudoeste 2 -- -- 96
2019-11-30 11:00:00 12.7 3 Oeste 14 Oeste 0.6 -- -- 95
2019-11-30 10:00:00 12.8 4 Sudoeste 17 Sudoeste 0.2 -- -- 96
2019-11-30 09:00:00 12.4 3 Sudoeste 13 Sudoeste 0 -- -- 98
2019-11-30 08:00:00 12.5 2 Noroeste 7 Noroeste 0 -- -- 98
2019-11-30 07:00:00 12.7 2 Sudoeste 6 Sudoeste 0 -- -- 98
2019-11-30 06:00:00 12.8 2 Sudoeste 7 Sudoeste 0 -- -- 98
2019-11-30 05:00:00 12.9 2 Sudoeste 6 Sudoeste 0 -- -- 98
2019-11-30 04:00:00 13 0 Calma 4 Sudoeste 0 -- -- 98
2019-11-30 03:00:00 13 0 Calma 8 Sudoeste -- -- -- 99
2019-11-30 02:00:00 13 3 Sudoeste 4 Sudoeste 0.2 -- -- 99
2019-11-30 01:00:00 13.2 2 Sudoeste 7 Sur 0 -- -- 99
2019-11-30 00:00:00 13.3 0 Calma 8 Sur 0 -- -- 99
2019-11-29 23:00:00 13.3 0 Calma 6 Sudoeste 0 -- -- 98
2019-11-29 22:00:00 13.4 2 Sur 9 Sudoeste 0.2 -- -- 98
2019-11-29 21:00:00 13.4 0 Calma 2 Sur 0.8 -- -- 98
2019-11-29 20:00:00 13.5 0 Calma 5 Oeste 0.4 -- -- 98
2019-11-29 19:00:00 13.5 0 Calma 11 Sudoeste 0.4 -- -- 97
2019-11-29 18:00:00 13.6 3 Sudoeste 15 Sur 0 -- -- 97
2019-11-29 17:00:00 13.8 6 Sudoeste 16 Sur 0 -- -- 97
2019-11-29 16:00:00 14.1 5 Sudoeste 18 Sudoeste 0 -- -- 97
2019-11-29 15:00:00 14 5 Sudoeste 14 Sur 0.2 -- -- 98
2019-11-29 14:00:00 13.5 4 Sudoeste 15 Sur 0 -- -- 98
2019-11-29 13:00:00 13.3 4 Sudoeste 13 Sudoeste 0 -- -- 98
2019-11-29 12:00:00 12.9 6 Sudoeste 14 Sur 0.2 -- -- 98
2019-11-29 11:00:00 13 0 Calma 3 Sudoeste 0.4 -- -- 99
2019-11-29 10:00:00 12.5 0 Calma 2 Nordeste 0.4 -- -- 99
2019-11-29 09:00:00 12.2 0 Calma 3 Sudoeste 0.6 -- -- 98
2019-11-29 08:00:00 12.1 0 Calma 4 Sudoeste 0.2 -- -- 98
2019-11-29 07:00:00 12.1 0 Calma 4 Oeste 0 -- -- 98
2019-11-29 06:00:00 12.1 0 Calma 6 Sudoeste 0.2 -- -- 98
2019-11-29 05:00:00 12.3 0 Calma 4 Norte 0.4 -- -- 98
2019-11-29 04:00:00 12.3 0 Calma 7 Oeste 0.2 -- -- 98
2019-11-29 03:00:00 12.3 0 Calma 10 Noroeste 0.2 -- -- 98
2019-11-29 02:00:00 12.4 3 Oeste 12 Sur 0.2 -- -- 98
2019-11-29 01:00:00 12.4 4 Oeste 17 Sur 0.4 -- -- 97
2019-11-29 00:00:00 12.4 3 Oeste 13 Sur 0.2 -- -- 97
2019-11-28 23:00:00 12.4 3 Oeste 17 Sur 0.2 -- -- 96
2019-11-28 22:00:00 12.4 6 Sudoeste 18 Sudoeste 0 -- -- 96
2019-11-28 21:00:00 12.3 3 Noroeste 14 Sudoeste 0 -- -- 96
2019-11-28 20:00:00 12.3 4 Oeste 29 Sudoeste 0 -- -- 94
2019-11-28 19:00:00 12 5 Sudoeste 15 Sudoeste 0.8 -- -- 95
2019-11-28 18:00:00 11.9 5 Sudoeste 32 Sudoeste 0 -- -- 97
2019-11-28 17:00:00 12.1 12 Sudoeste 26 Sudoeste 0.8 -- -- 96
2019-11-28 16:00:00 12.4 3 Sudoeste 18 Sudoeste 0.8 -- -- 96
2019-11-28 15:00:00 12.4 9 Sudoeste 26 Sudoeste 0 -- -- 93
2019-11-28 14:00:00 12.9 8 Sudoeste 24 Sudoeste 0 -- -- 90
2019-11-28 13:00:00 11.3 3 Norte 11 Sur 0 -- -- 95
2019-11-28 12:00:00 10.6 0 Calma 6 Sur 0 -- -- 97
2019-11-28 11:00:00 9.9 3 Nordeste 7 Norte 0.2 -- -- 97
2019-11-28 10:00:00 9.5 0 Calma 5 Este 0 -- -- 97
2019-11-28 09:00:00 9.3 0 Calma 6 Norte 0 -- -- 97
2019-11-28 08:00:00 9 3 Noroeste 5 Norte 0 -- -- 95
2019-11-28 07:00:00 8.7 3 Norte 6 Norte 0 -- -- 94
2019-11-28 06:00:00 8.6 0 Calma 5 Noroeste 0 -- -- 95
2019-11-28 05:00:00 8.2 0 Calma 6 Noroeste 0 -- -- 97
2019-11-28 04:00:00 7.6 3 Noroeste 8 Nordeste 0 -- -- 97
2019-11-28 03:00:00 7.7 4 Noroeste 6 Norte 0 -- -- 96
2019-11-28 02:00:00 8 0 Calma 5 Oeste 0 -- -- 96
2019-11-28 01:00:00 8.9 3 Oeste 8 Noroeste 0 -- -- 94
2019-11-28 00:00:00 9.7 0 Calma 14 Sudoeste 0 -- -- 90
2019-11-27 23:00:00 10.5 5 Sudoeste 19 Oeste 0 -- -- 90
2019-11-27 22:00:00 9.9 0 Calma 8 Noroeste 0 -- -- 91
2019-11-27 21:00:00 10.3 3 Noroeste 10 Noroeste 0 -- -- 92
2019-11-27 20:00:00 11 4 Oeste 12 Sudoeste 0 -- -- 89
2019-11-27 19:00:00 11.5 2 Nordeste 13 Sudoeste 0 -- -- 89
2019-11-27 18:00:00 11.9 6 Sur 22 Sur 0 -- -- 87
2019-11-27 17:00:00 12.5 5 Sudoeste 32 Sudoeste 0 -- -- 86
2019-11-27 16:00:00 13.8 12 Sudoeste 31 Sur 0 -- -- 77
2019-11-27 15:00:00 13.8 5 Sudoeste 28 Sur 0 -- -- 80
2019-11-27 14:00:00 14.2 9 Sudoeste 23 Sudoeste 0 -- -- 78
2019-11-27 06:00:00 9 0 Calma 14 Sudoeste 0 -- -- 96
2019-11-27 05:00:00 10.1 6 Sudoeste 15 Sudoeste 0 -- -- 97
2019-11-27 04:00:00 11.1 3 Noroeste 21 Sur 0 -- -- 98
2019-11-27 03:00:00 11.5 4 Sudoeste 11 Sudoeste 0 -- -- 98
2019-11-27 02:00:00 11.7 2 Sur 21 Sudoeste 0 -- -- 98
2019-11-27 01:00:00 12.2 5 Sudoeste 25 Sudoeste 0.4 -- -- 97
2019-11-27 00:00:00 12.5 9 Sudoeste 26 Sudoeste 1.6 -- -- 97
2019-11-26 23:00:00 12.5 4 Sur 17 Sur 1 -- -- 96
2019-11-26 22:00:00 12.5 3 Sur 17 Sur 0 -- -- 98
2019-11-26 21:00:00 13.4 4 Sur 18 Sur 0 -- -- 98
2019-11-26 20:00:00 13.5 4 Sudeste 22 Sudoeste 0.2 -- -- 98
2019-11-26 19:00:00 13 4 Sur 14 Sudoeste 5.2 -- -- 99
2019-11-26 18:00:00 12.6 0 Calma 4 Este 5.8 -- -- 98
2019-11-26 17:00:00 12.7 0 Calma 7 Sur 5.6 -- -- 98
2019-11-26 16:00:00 12.9 0 Calma 6 Nordeste 4.8 -- -- 98
2019-11-26 15:00:00 12.8 0 Calma 8 Este 5.4 -- -- 97
2019-11-26 14:00:00 12.7 3 Este 5 Este 2.6 -- -- 97
2019-11-26 13:00:00 12.8 0 Calma 6 Sudoeste 2.2 -- -- 97
2019-11-26 12:00:00 12.8 0 Calma 6 Nordeste 1.8 -- -- 98
2019-11-26 11:00:00 12.7 0 Calma 5 Sudoeste 0.2 -- -- 98
2019-11-26 10:00:00 12.4 0 Calma 5 Noroeste 0.2 -- -- 98
2019-11-26 09:00:00 11.2 0 Calma 5 Noroeste 0 -- -- 98
2019-11-26 08:00:00 11 0 Calma 4 Norte 0.4 -- -- 98
2019-11-26 07:00:00 11 0 Calma 4 Sudoeste 0.2 -- -- 98
2019-11-26 06:00:00 11 0 Calma 3 Noroeste 0.2 -- -- 98
2019-11-26 05:00:00 10.8 0 Calma 3 Sudoeste 0 -- -- 98
2019-11-26 04:00:00 10.7 2 Norte 5 Norte 0 -- -- 98
2019-11-26 03:00:00 10.8 0 Calma -- -- 0 -- -- 97
2019-11-26 02:00:00 11.1 0 Calma 4 Sudoeste 0 -- -- 98
2019-11-26 01:00:00 11 0 Calma 4 Norte 0 -- -- 98
2019-11-26 00:00:00 11.7 0 Calma 5 Noroeste 0 -- -- 98
2019-11-25 23:00:00 10.8 0 Calma 5 Nordeste 0 -- -- 96
2019-11-25 22:00:00 11.7 2 Este 6 Este 0 -- -- 96
2019-11-25 21:00:00 11.8 0 Calma 6 Noroeste 0 -- -- 96
2019-11-25 20:00:00 12.1 0 Calma 5 Norte 0 -- -- 95
2019-11-25 19:00:00 12.9 3 Noroeste 6 Noroeste 0 -- -- 95
2019-11-25 18:00:00 13.4 0 Calma 13 Sur 0 -- -- 91
2019-11-25 17:00:00 14.9 2 Sudoeste 6 Sudoeste 0 -- -- 87
2019-11-25 16:00:00 15.4 3 Sudoeste 9 Sudoeste 0 -- -- 84
2019-11-25 15:00:00 15.3 2 Nordeste 8 Este 0 -- -- 89
2019-11-25 14:00:00 16.2 2 Sudeste 7 Este 0 -- -- 89
2019-11-25 13:00:00 14.3 0 Calma 6 Norte 0 -- -- 96
2019-11-25 12:00:00 12.8 0 Calma 4 Nordeste 0.2 -- -- 98
2019-11-25 11:00:00 11.8 2 Este 3 Nordeste 0.6 -- -- 98
2019-11-25 10:00:00 11.2 0 Calma 9 Este 0 -- -- 98
2019-11-25 09:00:00 11.2 0 Calma 8 Este 0.4 -- -- 97
2019-11-25 08:00:00 10.8 0 Calma 3 Oeste 0.4 -- -- 97
2019-11-25 07:00:00 10.8 0 Calma 5 Sudoeste 0 -- -- 97
2019-11-25 06:00:00 10.9 2 Noroeste 5 Oeste 0 -- -- 97
2019-11-25 05:00:00 10.6 0 Calma 5 Oeste 0.2 -- -- 96
2019-11-25 04:00:00 10.7 3 Sur 12 Oeste 0.8 -- -- 96
2019-11-25 03:00:00 10.3 0 Calma 13 Sudoeste 0.8 -- -- 96
2019-11-25 02:00:00 10.5 2 Sudoeste 10 Oeste 1.4 -- -- 97
2019-11-25 01:00:00 9 3 Noroeste 6 Oeste 1.4 -- -- 96
2019-11-25 00:00:00 9 0 Calma 5 Norte 0.6 -- -- 94
2019-11-24 23:00:00 9.3 0 Calma 3 Noroeste 0 -- -- 90
2019-11-24 22:00:00 9.9 0 Calma 8 Nordeste 0 -- -- 85
2019-11-24 21:00:00 9.5 3 Noroeste 6 Norte 0 -- -- 83
2019-11-24 20:00:00 9.6 0 Calma 4 Sudoeste 0 -- -- 82
2019-11-24 19:00:00 9.2 2 Norte 7 Oeste 0 -- -- 82
2019-11-24 18:00:00 9.2 3 Oeste 8 Sudoeste 0 -- -- 82
2019-11-24 17:00:00 11.8 2 Sudoeste 15 Sur 0 -- -- 70
2019-11-24 16:00:00 13.4 5 Sudoeste 13 Sudoeste 0 -- -- 57
2019-11-24 15:00:00 13.2 2 Sur 10 Sudeste 0 -- -- 59
2019-11-24 14:00:00 12 2 Sudeste 8 Este 0 -- -- 66
2019-11-24 13:00:00 10.6 2 Sudeste 9 Nordeste 0 -- -- 73
2019-11-24 12:00:00 8.7 2 Sudeste 9 Este 0 -- -- 81
2019-11-24 11:00:00 7.8 3 Este 11 Este 0 -- -- 82
2019-11-24 10:00:00 6 4 Este 10 Nordeste 0 -- -- 89
2019-11-24 09:00:00 4.3 0 Calma 10 Nordeste 0 -- -- 94
2019-11-24 08:00:00 3.8 2 Nordeste 8 Noroeste 0 -- -- 94
2019-11-24 07:00:00 3.7 3 Norte 9 Oeste 0 -- -- 94
2019-11-24 06:00:00 4 2 Este 9 Sudoeste 0 -- -- 91
2019-11-24 05:00:00 5.8 3 Sudeste 22 Sudoeste 0 -- -- 81
2019-11-24 04:00:00 5.1 3 Sudoeste 15 Nordeste 0 -- -- 83
2019-11-24 03:00:00 8.1 5 Sudeste 23 Nordeste 0 -- -- 65
2019-11-24 02:00:00 10.4 10 Nordeste 32 Norte 0 -- -- 54
2019-11-24 01:00:00 10.1 9 Noroeste 24 Norte 0 -- -- 53
2019-11-24 00:00:00 11 15 Norte 33 Norte 0 -- -- 50
2019-11-23 23:00:00 11.1 9 Noroeste 26 Sudoeste 0 -- -- 52
2019-11-23 22:00:00 10.2 4 Oeste 18 Sudoeste 0 -- -- 57
2019-11-23 21:00:00 9.5 6 Sudoeste 17 Sur 0 -- -- 61
2019-11-23 20:00:00 9.8 4 Oeste 15 Sudoeste 0 -- -- 60
2019-11-23 19:00:00 11 4 Oeste 22 Sudoeste 0 -- -- 55
2019-11-23 18:00:00 11.5 5 Sudoeste 27 Sudoeste 0 -- -- 53
2019-11-23 17:00:00 11.5 5 Oeste 28 Sudoeste 0 -- -- 52
2019-11-23 16:00:00 12.3 10 Oeste 29 Noroeste 0 -- -- 46
2019-11-23 15:00:00 12.9 12 Norte 30 Noroeste 0 -- -- 45
2019-11-23 14:00:00 11.8 7 Noroeste 36 Noroeste 0 -- -- 49
2019-11-23 13:00:00 13.2 10 Noroeste 42 Noroeste 0 -- -- 44
2019-11-23 12:00:00 11.6 9 Sudoeste 42 Norte 0 -- -- 48
2019-11-23 11:00:00 10.3 9 Oeste 29 Noroeste 0 -- -- 53
2019-11-23 10:00:00 11 6 Noroeste 63 Sudoeste 0.2 -- -- 51
2019-11-23 09:00:00 10.3 13 Norte 46 Noroeste 0 -- -- 51
2019-11-23 08:00:00 9.1 3 Sudoeste 26 Sudoeste 0 -- -- 55
2019-11-23 07:00:00 8.4 8 Sudoeste 22 Sudoeste 0 -- -- 57
2019-11-23 06:00:00 8.4 3 Sudeste 20 Sudoeste 0 -- -- 60
2019-11-23 05:00:00 9.2 8 Oeste 30 Sudoeste 0 -- -- 66
2019-11-23 04:00:00 9 14 Sudoeste 36 Sudoeste 0 -- -- 69
2019-11-23 03:00:00 7.9 12 Sur 29 Sur 0 -- -- 76
2019-11-23 02:00:00 8.5 8 Oeste 36 Noroeste 0 -- -- 70
2019-11-23 01:00:00 8.7 7 Oeste 20 Oeste 0.6 -- -- 90
2019-11-23 00:00:00 9 5 Sudoeste 20 Sudoeste 0.2 -- -- 95
2019-11-22 23:00:00 9.2 3 Norte 18 Noroeste 0.6 -- -- 96
2019-11-22 22:00:00 8.4 0 Calma 10 Sudoeste 0 -- -- 96
2019-11-22 21:00:00 8.3 2 Sudeste 8 Este 0 -- -- 95
2019-11-22 20:00:00 9.4 2 Nordeste 17 Sudoeste 0 -- -- 91
2019-11-22 19:00:00 10.7 4 Oeste 18 Sudoeste 0 -- -- 91
2019-11-22 18:00:00 11.2 8 Sudoeste 22 Sudoeste 0 -- -- 90
2019-11-22 17:00:00 11.4 3 Oeste 8 Sur 0 -- -- 98
2019-11-22 16:00:00 10.8 0 Calma 6 Nordeste 0.2 -- -- 98
2019-11-22 15:00:00 10.9 2 Sudeste 8 Este 0.2 -- -- 98
2019-11-22 14:00:00 11 0 Calma 6 Este 2.2 -- -- 98
2019-11-22 13:00:00 10.4 2 Este 4 Norte 5.6 -- -- 99
2019-11-22 12:00:00 9.8 0 Calma 6 Nordeste 5.8 -- -- 98
2019-11-22 11:00:00 9.6 0 Calma 5 Norte 6.2 -- -- 98
2019-11-22 10:00:00 9.5 0 Calma 5 Oeste 6.6 -- -- 98
2019-11-22 09:00:00 9.3 2 Noroeste 8 Oeste 5.8 -- -- 98
2019-11-22 08:00:00 9.2 0 Calma -- -- 5 -- -- 98
2019-11-22 07:00:00 9 0 Calma 4 Oeste 3.8 -- -- 98
2019-11-22 06:00:00 8.8 2 Noroeste 4 Noroeste 2.6 -- -- 98
2019-11-22 05:00:00 8.6 0 Calma 3 Noroeste 2.8 -- -- 98
2019-11-22 04:00:00 8.6 2 Oeste 6 Noroeste 2.8 -- -- 98
2019-11-22 03:00:00 8.5 0 Calma 6 Noroeste 1.8 -- -- 97
2019-11-22 02:00:00 8.4 0 Calma 5 Sur 0.6 -- -- 97
2019-11-22 01:00:00 8.4 4 Oeste 13 Oeste 3 -- -- 97
2019-11-22 00:00:00 8.3 0 Calma 6 Sudoeste 3.6 -- -- 97
2019-11-21 23:00:00 8.3 0 Calma 4 Este 0.8 -- -- 96
2019-11-21 22:00:00 8.2 2 Nordeste 6 Noroeste 0 -- -- 96
2019-11-21 21:00:00 8.1 3 Noroeste 6 Norte 0 -- -- 96
2019-11-21 20:00:00 7.9 0 Calma 6 Noroeste 0 -- -- 96
2019-11-21 19:00:00 8.1 0 Calma 6 Oeste 0 -- -- 96
2019-11-21 18:00:00 8.9 0 Calma 3 Nordeste 0 -- -- 93
2019-11-21 17:00:00 10.6 0 Calma 6 Sudeste 0 -- -- 88
2019-11-21 16:00:00 10.9 0 Calma 15 Sur 0 -- -- 90
2019-11-21 15:00:00 10.1 3 Sur 8 Sur 0 -- -- 92
2019-11-21 14:00:00 9.5 0 Calma 4 Sudeste 0 -- -- 95
2019-11-21 13:00:00 8.7 0 Calma 4 Sudeste 0.2 -- -- 97
2019-11-21 12:00:00 8.1 0 Calma 0 Calma 0.6 -- -- 97
2019-11-21 11:00:00 7.3 0 Calma 2 Este 0.4 -- -- 98
2019-11-21 10:00:00 6.8 0 Calma 3 Nordeste 0.6 -- -- 98
2019-11-21 09:00:00 6.2 0 Calma 3 Nordeste 1.8 -- -- 97
2019-11-21 08:00:00 -- -- -- -- -- -- -- -- --
2019-11-21 07:00:00 -- -- -- -- -- -- -- -- --
2019-11-21 06:00:00 -- -- -- -- -- -- -- -- --
2019-11-21 05:00:00 -- -- -- -- -- -- -- -- --
2019-11-21 04:00:00 -- -- -- -- -- -- -- -- --
2019-11-21 03:00:00 -- -- -- -- -- -- -- -- --
2019-11-21 02:00:00 -- -- -- -- -- -- -- -- --
2019-11-21 01:00:00 -- -- -- -- -- -- -- -- --
2019-11-21 00:00:00 -- -- -- -- -- -- -- -- --
2019-11-20 23:00:00 -- -- -- -- -- -- -- -- --
2019-11-20 22:00:00 -- -- -- -- -- -- -- -- --
2019-11-20 21:00:00 -- -- -- -- -- -- -- -- --
2019-11-20 20:00:00 -- -- -- -- -- -- -- -- --
2019-11-20 19:00:00 6.3 0 Calma 4 Nordeste 0.2 -- -- 95
2019-11-20 18:00:00 6.6 0 Calma 3 Sur 2.4 -- -- 93
2019-11-20 17:00:00 7.2 2 Este 8 Este 0.6 -- -- 94
2019-11-20 16:00:00 8 0 Calma 4 Sur 0.4 -- -- 93
2019-11-20 15:00:00 7.7 0 Calma 3 Nordeste 0.4 -- -- 94
2019-11-20 14:00:00 7.6 0 Calma 6 Norte 1.4 -- -- 95
2019-11-20 13:00:00 6.9 2 Nordeste 6 Norte 1.8 -- -- 94
2019-11-20 12:00:00 7.1 0 Calma 4 Nordeste 1.2 -- -- 94
2019-11-20 11:00:00 7.1 0 Calma 8 Sudoeste 0.6 -- -- 91
2019-11-20 10:00:00 6.8 2 Oeste 7 Noroeste 0.2 -- -- 90
2019-11-20 09:00:00 6.6 0 Calma -- -- 0 -- -- 85
2019-11-20 08:00:00 6.8 0 Calma 6 Norte 0 -- -- 80
2019-11-20 07:00:00 6.8 0 Calma -- -- 0 -- -- 78
2019-11-20 06:00:00 6.5 0 Calma -- -- 0 -- -- 80
2019-11-20 05:00:00 6.4 0 Calma 3 Norte 0 -- -- 82
2019-11-20 04:00:00 6 0 Calma 3 Noroeste 0 -- -- 83
2019-11-20 03:00:00 6.1 0 Calma 3 Noroeste 0 -- -- 84
2019-11-20 02:00:00 6 0 Calma 4 Norte 0 -- -- 85
2019-11-20 01:00:00 5.7 0 Calma 4 Norte 0 -- -- 85
2019-11-20 00:00:00 6.4 0 Calma 3 Nordeste 0 -- -- 83
2019-11-19 23:00:00 7.1 2 Norte 3 Norte 0 -- -- 80
2019-11-19 22:00:00 6.9 0 Calma 3 Sudoeste 0 -- -- 82
2019-11-19 21:00:00 7 0 Calma 3 Sudoeste 0 -- -- 81
2019-11-19 20:00:00 7.4 0 Calma 5 Noroeste 0 -- -- 79
2019-11-19 19:00:00 7 0 Calma 4 Oeste 0 -- -- 79
2019-11-19 18:00:00 7.7 0 Calma 5 Sudoeste 0 -- -- 78
2019-11-19 17:00:00 9.6 0 Calma 8 Sur 0 -- -- 67
2019-11-19 16:00:00 10.3 4 Sur 10 Sudoeste 0 -- -- 60
2019-11-19 15:00:00 10.6 3 Sur 7 Sur 0 -- -- 60
2019-11-19 14:00:00 9.6 0 Calma 7 Este 0 -- -- 62
2019-11-19 13:00:00 9.3 2 Sudeste 6 Sudeste 0 -- -- 70
2019-11-19 12:00:00 7 0 Calma 4 Este 0 -- -- 78
2019-11-19 11:00:00 6.5 0 Calma 2 Este 0 -- -- 77
2019-11-19 10:00:00 4.9 0 Calma 4 Sudoeste 0 -- -- 82
2019-11-19 09:00:00 4.8 2 Noroeste 3 Noroeste 0 -- -- 75
2019-11-19 08:00:00 4 2 Noroeste 4 Norte 0 -- -- 77
2019-11-19 07:00:00 4.2 0 Calma 6 Sudoeste 0 -- -- 76
2019-11-19 06:00:00 4.1 0 Calma 5 Sudoeste 0 -- -- 77
2019-11-19 05:00:00 4 3 Sudoeste 5 Norte 0 -- -- 75
2019-11-19 04:00:00 4.5 0 Calma 9 Norte 0 -- -- 71
2019-11-19 03:00:00 5.1 0 Calma 7 Noroeste 0 -- -- 68
2019-11-19 02:00:00 6.6 3 Noroeste 8 Norte 0 -- -- 62
2019-11-19 01:00:00 6.7 3 Noroeste 8 Noroeste 0 -- -- 61
2019-11-19 00:00:00 6.6 3 Noroeste 8 Noroeste 0 -- -- 61
2019-11-18 23:00:00 5.7 2 Sudoeste 5 Noroeste 0 -- -- 66
2019-11-18 22:00:00 7.1 0 Calma 9 Norte 0 -- -- 60
2019-11-18 21:00:00 8 2 Oeste 8 Norte 0 -- -- 56
2019-11-18 20:00:00 10.4 5 Norte 29 Norte 0 -- -- 44
2019-11-18 19:00:00 10.3 9 Norte 28 Norte 0 -- -- 46
2019-11-18 18:00:00 11.2 10 Norte 26 Norte 0 -- -- 45
2019-11-18 17:00:00 12.5 10 Noroeste 26 Norte 0 -- -- 42
2019-11-18 16:00:00 14.1 6 Sudoeste 17 Sur 0 -- -- 50
2019-11-18 15:00:00 13.5 6 Sur 19 Sur 0 -- -- 54
2019-11-18 14:00:00 13.1 7 Sur 25 Sudoeste 0 -- -- 56
2019-11-18 13:00:00 12.2 5 Sur 24 Este 0 -- -- 61
2019-11-18 12:00:00 10.4 6 Este 26 Nordeste 0 -- -- 65
2019-11-18 11:00:00 9.5 5 Sur 14 Sur 0 -- -- 72
2019-11-18 10:00:00 8.5 4 Este 18 Norte 0 -- -- 71
2019-11-18 09:00:00 8.1 3 Nordeste 19 Norte 0 -- -- 65
2019-11-18 08:00:00 6 5 Noroeste 13 Sudoeste 0 -- -- 74
2019-11-18 07:00:00 4.5 2 Noroeste 8 Noroeste 0 -- -- 89
2019-11-18 06:00:00 5.3 4 Sudoeste 9 Sur 0 -- -- 84
2019-11-18 05:00:00 6.6 4 Norte 29 Norte 0 -- -- 79
2019-11-18 04:00:00 8.6 7 Este 36 Noroeste 0 -- -- 72
2019-11-18 03:00:00 9.2 14 Norte 40 Noroeste 0 -- -- 58
2019-11-18 02:00:00 9.2 18 Norte 39 Noroeste 0 -- -- 58
2019-11-18 01:00:00 9.4 15 Norte 35 Norte 0 -- -- 56
2019-11-18 00:00:00 9.4 8 Noroeste 23 Noroeste 0 -- -- 58
2019-11-17 23:00:00 9.4 8 Norte 22 Noroeste 0 -- -- 57
2019-11-17 22:00:00 8 3 Noroeste 19 Norte 0 -- -- 80
2019-11-17 21:00:00 7 2 Sudeste 10 Este 0 -- -- 96
2019-11-17 20:00:00 7.7 0 Calma 5 Nordeste 0.2 -- -- 95
2019-11-17 19:00:00 7.8 0 Calma 4 Nordeste 0.2 -- -- 95
2019-11-17 18:00:00 7.8 0 Calma 4 Nordeste 0.2 -- -- 94
2019-11-17 17:00:00 8 0 Calma 4 Sudeste 0 -- -- 90
2019-11-17 16:00:00 8.1 0 Calma 6 Nordeste 0 -- -- 88
2019-11-17 15:00:00 8.1 0 Calma 9 Sudoeste 0 -- -- 89
2019-11-17 14:00:00 7.6 4 Sudoeste 12 Sudoeste 0 -- -- 90
2019-11-17 13:00:00 7.1 0 Calma 6 Sudoeste 0 -- -- 87
2019-11-17 12:00:00 7.2 0 Calma 6 Sudoeste 0 -- -- 79
2019-11-17 11:00:00 6.9 0 Calma 5 Este 0 -- -- 78
2019-11-17 10:00:00 5.4 0 Calma 4 Norte 0 -- -- 78
2019-11-17 09:00:00 3.9 0 Calma 4 Noroeste 0 -- -- 87
2019-11-17 08:00:00 3.9 0 Calma 6 Sur 0 -- -- 87
2019-11-17 07:00:00 4.4 0 Calma 3 Norte 0 -- -- 79
2019-11-17 06:00:00 4.7 0 Calma 2 Sudoeste 0 -- -- 77
2019-11-17 05:00:00 4.8 0 Calma 6 Norte 0 -- -- 74
2019-11-17 04:00:00 4 3 Norte 6 Este 0 -- -- 75
2019-11-17 03:00:00 3.7 3 Nordeste 7 Nordeste 0 -- -- 71
2019-11-17 02:00:00 3.7 0 Calma 5 Norte 0 -- -- 71
2019-11-17 01:00:00 4.4 0 Calma 6 Norte 0 -- -- 67
2019-11-17 00:00:00 5.2 0 Calma 9 Sur 0 -- -- 67
2019-11-16 23:00:00 6.6 2 Sur 14 Nordeste 0 -- -- 59
2019-11-16 22:00:00 7.3 0 Calma 17 Nordeste 0 -- -- 53
2019-11-16 21:00:00 8.7 6 Norte 21 Norte 0 -- -- 47
2019-11-16 20:00:00 8.8 5 Este 29 Noroeste 0 -- -- 46
2019-11-16 19:00:00 9.3 4 Oeste 20 Oeste 0 -- -- 43
2019-11-16 18:00:00 10.2 6 Noroeste 15 Noroeste 0 -- -- 40
2019-11-16 17:00:00 11.9 0 Calma 10 Sudoeste 0 -- -- 57
2019-11-16 16:00:00 12.7 9 Sudoeste 17 Sur 0 -- -- 49
2019-11-16 15:00:00 12.5 8 Sudoeste 19 Sur 0 -- -- 46
2019-11-16 14:00:00 11.7 8 Sudoeste 18 Sur 0 -- -- 50
2019-11-16 13:00:00 10.8 7 Sur 15 Sur 0 -- -- 56
2019-11-16 12:00:00 8.2 4 Sur 10 Sur 0 -- -- 63
2019-11-16 11:00:00 6.2 3 Sudeste 9 Este 0 -- -- 71
2019-11-16 10:00:00 5 0 Calma 8 Este 0 -- -- 73
2019-11-16 09:00:00 2.7 3 Noroeste 8 Sudoeste 0 -- -- 79
2019-11-16 08:00:00 1.8 3 Sur 7 Sur 0 -- -- 80
2019-11-16 07:00:00 2.8 3 Oeste 20 Este 0 -- -- 74
2019-11-16 06:00:00 7.2 11 Norte 34 Noroeste 0 -- -- 53
2019-11-16 05:00:00 7.2 13 Norte 41 Norte 0 -- -- 54
2019-11-16 04:00:00 4.1 3 Sur 19 Noroeste 0 -- -- 68
2019-11-16 03:00:00 6.6 7 Noroeste 18 Este 0 -- -- 59
2019-11-16 02:00:00 6.9 3 Sur 24 Norte 0 -- -- 58
2019-11-16 01:00:00 7.7 8 Norte 24 Norte 0 -- -- 53
2019-11-16 00:00:00 7.4 6 Noroeste 22 Noroeste 0 -- -- 55